Olli — 2HQD8 — position and weather

sailwx.info

Track history (hours):
 
Tides and Currents Weather Stations Pressure Air Temp Water Temp Dewpoint Dewpoint Depression Visibility Wind Speed Wind Dir Waves Ship Positions

Olli

Last reported at 2018-Jun-17 12:34 UTC. Time now 2018-Jun-23 04:40 UTC.
Position N 37°05' W 008°24'.

Length 12 m.

Type: Sailing vessel. MMSI: 235105726.

Date/timePositionNaut miles runAvg speedWind from/ knotsBaromVisibWave heightAir tempDewpointWater temp
2018-Jun-17 12:34N 37°05' W 008°24'1 7.2
2018-Jun-17 12:29N 37°05' W 008°23'4 7.1
2018-Jun-17 11:59N 37°04' W 008°19'1 0.0
2018-Jun-16 13:45N 37°04' W 008°18'1 4.7
2018-Jun-16 13:30N 37°05' W 008°19'2 4.6
2018-Jun-16 13:00N 37°05' W 008°22'7 6.0
2018-Jun-16 11:55N 37°06' W 008°30'2 3.5
2018-Jun-16 11:25N 37°07' W 008°32'0 0.0
2018-Jun-15 18:55N 37°07' W 008°32'0 0.7
2018-Jun-15 18:20N 37°07' W 008°32'2 4.8
2018-Jun-15 17:58N 37°07' W 008°34'0 0.0
2018-Jun-15 17:10N 37°07' W 008°34'0 0.0
2018-Jun-15 16:58N 37°07' W 008°34'0 0.0
2018-Jun-15 16:25N 37°07' W 008°34'0 0.0
2018-Jun-15 15:55N 37°07' W 008°34'0 0.0
2018-Jun-15 15:25N 37°07' W 008°34'0 0.0
2018-Jun-15 14:22N 37°07' W 008°34'0 0.1
2018-Jun-15 13:54N 37°07' W 008°34'2 0.4
2018-Jun-15 09:50N 37°07' W 008°32'0 0.0
2018-Jun-15 09:26N 37°07' W 008°32'0 0.0
2018-Jun-15 08:56N 37°07' W 008°32'  
2018-Jun-12 14:44N 37°08' W 008°32'  
Track history (hours):
 
Tides and Currents Weather Stations Pressure Air Temp Water Temp Dewpoint Dewpoint Depression Visibility Wind Speed Wind Dir Waves Ship Positions

Olli

Last reported at 2018-Jun-17 12:34 UTC. Time now 2018-Jun-23 04:40 UTC.
Position N 37°05' W 008°24'.

Length 12 m.

Type: Sailing vessel. MMSI: 235105726.

Date/timePositionNaut miles runAvg speedWind from/ knotsBaromVisibWave heightAir tempDewpointWater temp
2018-Jun-17 12:34N 37°05' W 008°24'1 7.2
2018-Jun-17 12:29N 37°05' W 008°23'4 7.1
2018-Jun-17 11:59N 37°04' W 008°19'1 0.0
2018-Jun-16 13:45N 37°04' W 008°18'1 4.7
2018-Jun-16 13:30N 37°05' W 008°19'2 4.6
2018-Jun-16 13:00N 37°05' W 008°22'7 6.0
2018-Jun-16 11:55N 37°06' W 008°30'2 3.5
2018-Jun-16 11:25N 37°07' W 008°32'0 0.0
2018-Jun-15 18:55N 37°07' W 008°32'0 0.7
2018-Jun-15 18:20N 37°07' W 008°32'2 4.8
2018-Jun-15 17:58N 37°07' W 008°34'0 0.0
2018-Jun-15 17:10N 37°07' W 008°34'0 0.0
2018-Jun-15 16:58N 37°07' W 008°34'0 0.0
2018-Jun-15 16:25N 37°07' W 008°34'0 0.0
2018-Jun-15 15:55N 37°07' W 008°34'0 0.0
2018-Jun-15 15:25N 37°07' W 008°34'0 0.0
2018-Jun-15 14:22N 37°07' W 008°34'0 0.1
2018-Jun-15 13:54N 37°07' W 008°34'2 0.4
2018-Jun-15 09:50N 37°07' W 008°32'0 0.0
2018-Jun-15 09:26N 37°07' W 008°32'0 0.0
2018-Jun-15 08:56N 37°07' W 008°32'  
2018-Jun-12 14:44N 37°08' W 008°32'  

Dump ship's entire track history